Time;durP1;ratioP1;P1;durP2;ratioP2;P2;SDS_P1;SDS_P2;PMS_P1;PMS_P2;Temp;Humidity;BMP_temperature;BMP_pressure;BME280_temperature;BME280_humidity;BME280_pressure;Samples;Min_cycle;Max_cycle;Signal;HPM_P1;HPM_P2
2024/01/29 00:02:29;;;;;;;28.02;16.25;;;;;;;;;;5048646;28;20106;-66
2024/01/29 00:04:54;;;;;;;33.13;15.90;;;;;;;;;;5049352;28;20060;-67
2024/01/29 00:07:21;;;;;;;28.23;15.80;;;;;;;;;;5044679;28;20052;-67
2024/01/29 00:09:47;;;;;;;29.23;15.60;;;;;;;;;;5045850;28;20045;-68
2024/01/29 00:12:14;;;;;;;30.23;16.13;;;;;;;;;;5048555;28;20052;-68
2024/01/29 00:14:40;;;;;;;30.67;15.35;;;;;;;;;;5049166;28;20041;-67
2024/01/29 00:17:09;;;;;;;26.20;15.48;;;;;;;;;;5046336;28;20485;-67
2024/01/29 00:19:35;;;;;;;26.75;15.52;;;;;;;;;;5048282;28;20562;-68
2024/01/29 00:22:04;;;;;;;28.95;15.50;;;;;;;;;;5048675;28;20171;-72
2024/01/29 00:24:30;;;;;;;28.48;16.13;;;;;;;;;;5044575;28;20148;-68
2024/01/29 00:26:56;;;;;;;26.65;14.48;;;;;;;;;;5046576;28;20053;-67
2024/01/29 00:29:23;;;;;;;26.60;14.50;;;;;;;;;;5049282;28;20501;-68
2024/01/29 00:31:49;;;;;;;30.42;14.70;;;;;;;;;;5045644;28;20055;-67
2024/01/29 00:34:15;;;;;;;25.00;14.38;;;;;;;;;;5043588;28;20134;-67
2024/01/29 00:36:43;;;;;;;26.70;15.43;;;;;;;;;;5047019;28;20449;-67
2024/01/29 00:39:09;;;;;;;26.08;15.70;;;;;;;;;;5044099;28;20130;-67
2024/01/29 00:41:36;;;;;;;29.15;14.90;;;;;;;;;;5049211;28;20083;-66
2024/01/29 00:44:03;;;;;;;27.95;15.18;;;;;;;;;;5061086;28;20053;-68
2024/01/29 00:46:31;;;;;;;26.83;15.07;;;;;;;;;;5046971;28;20061;-68
2024/01/29 00:48:58;;;;;;;26.00;14.65;;;;;;;;;;5046923;28;20048;-67
2024/01/29 00:51:24;;;;;;;27.65;14.55;;;;;;;;;;5044984;28;20106;-67
2024/01/29 00:53:51;;;;;;;28.77;15.13;;;;;;;;;;5048159;28;21057;-70
2024/01/29 00:56:18;;;;;;;23.38;13.60;;;;;;;;;;5045928;28;20076;-67
2024/01/29 00:58:44;;;;;;;27.35;14.77;;;;;;;;;;5048608;28;20075;-66
2024/01/29 01:01:11;;;;;;;27.45;15.00;;;;;;;;;;5050007;28;20078;-66
2024/01/29 01:03:37;;;;;;;29.90;14.45;;;;;;;;;;5048955;28;20496;-66
2024/01/29 01:06:03;;;;;;;25.63;14.70;;;;;;;;;;5046439;28;20366;-66
2024/01/29 01:08:31;;;;;;;25.02;13.73;;;;;;;;;;5045418;28;20048;-67
2024/01/29 01:10:58;;;;;;;24.10;14.27;;;;;;;;;;5045539;28;20416;-66
2024/01/29 01:13:23;;;;;;;33.80;14.55;;;;;;;;;;5045695;28;20051;-66
2024/01/29 01:15:50;;;;;;;29.30;15.23;;;;;;;;;;5044206;28;20795;-66
2024/01/29 01:18:17;;;;;;;25.88;14.80;;;;;;;;;;5045479;28;20140;-69
2024/01/29 01:20:44;;;;;;;26.35;14.77;;;;;;;;;;5046033;28;20033;-67
2024/01/29 01:23:10;;;;;;;28.55;14.95;;;;;;;;;;5042138;28;20148;-66
2024/01/29 01:25:39;;;;;;;28.23;13.88;;;;;;;;;;5043799;28;20049;-67
2024/01/29 01:28:06;;;;;;;26.00;14.27;;;;;;;;;;5045669;28;20064;-67
2024/01/29 01:30:33;;;;;;;23.13;13.45;;;;;;;;;;5048368;28;20069;-65
2024/01/29 01:33:00;;;;;;;22.13;13.57;;;;;;;;;;5046673;28;20415;-66
2024/01/29 01:35:26;;;;;;;22.88;13.50;;;;;;;;;;5042219;28;20058;-66
2024/01/29 01:37:53;;;;;;;31.23;13.48;;;;;;;;;;5049248;28;20207;-66
2024/01/29 01:40:22;;;;;;;22.45;12.95;;;;;;;;;;5044697;28;20049;-66
2024/01/29 01:42:48;;;;;;;27.60;13.27;;;;;;;;;;5044738;28;20053;-68
2024/01/29 01:45:14;;;;;;;26.08;13.27;;;;;;;;;;5045475;28;20726;-67
2024/01/29 01:47:42;;;;;;;24.83;13.10;;;;;;;;;;5046311;28;20052;-66
2024/01/29 01:50:09;;;;;;;23.38;13.52;;;;;;;;;;5043159;28;20146;-69
2024/01/29 01:52:37;;;;;;;29.70;13.23;;;;;;;;;;5046548;28;20076;-66
2024/01/29 01:55:05;;;;;;;27.27;13.77;;;;;;;;;;5040129;28;20056;-66
2024/01/29 01:57:31;;;;;;;27.67;14.02;;;;;;;;;;5046099;28;20053;-66
2024/01/29 01:59:59;;;;;;;28.15;14.52;;;;;;;;;;5046610;28;20045;-66
2024/01/29 02:02:26;;;;;;;24.48;13.88;;;;;;;;;;5035806;28;20045;-67
2024/01/29 02:04:52;;;;;;;25.13;14.20;;;;;;;;;;5040001;28;20126;-67
2024/01/29 02:07:18;;;;;;;25.45;13.88;;;;;;;;;;5045634;28;20140;-67
2024/01/29 02:09:47;;;;;;;31.55;13.80;;;;;;;;;;5046511;28;20099;-68
2024/01/29 02:12:14;;;;;;;27.38;14.70;;;;;;;;;;5045281;28;20045;-65
2024/01/29 02:14:40;;;;;;;23.80;13.82;;;;;;;;;;5043904;28;20046;-67
2024/01/29 02:17:06;;;;;;;26.60;14.25;;;;;;;;;;5042782;28;20080;-66
2024/01/29 02:19:33;;;;;;;26.88;14.05;;;;;;;;;;5043654;28;20151;-66
2024/01/29 02:22:00;;;;;;;30.08;15.07;;;;;;;;;;5040761;28;20128;-68
2024/01/29 02:24:26;;;;;;;29.60;14.05;;;;;;;;;;5035500;28;20044;-66
2024/01/29 02:26:52;;;;;;;28.85;14.55;;;;;;;;;;5041038;28;20090;-67
2024/01/29 02:29:20;;;;;;;29.05;14.27;;;;;;;;;;5040945;28;20055;-66
2024/01/29 02:31:46;;;;;;;25.73;14.52;;;;;;;;;;5046700;28;20136;-67
2024/01/29 02:34:12;;;;;;;26.30;13.60;;;;;;;;;;5046342;28;20131;-66
2024/01/29 02:36:38;;;;;;;26.90;14.52;;;;;;;;;;5037062;28;20045;-67
2024/01/29 02:39:07;;;;;;;26.13;13.80;;;;;;;;;;5043242;28;20053;-67
2024/01/29 02:41:33;;;;;;;26.67;13.65;;;;;;;;;;5058561;28;20106;-66
2024/01/29 02:43:59;;;;;;;25.60;13.75;;;;;;;;;;5037850;28;20062;-68
2024/01/29 02:46:25;;;;;;;26.75;14.15;;;;;;;;;;5038691;28;20401;-65
2024/01/29 02:48:52;;;;;;;27.70;14.55;;;;;;;;;;5042140;28;20120;-68
2024/01/29 02:51:19;;;;;;;25.50;13.60;;;;;;;;;;5044522;28;20045;-65
2024/01/29 02:53:46;;;;;;;25.08;13.50;;;;;;;;;;5042436;28;20106;-69
2024/01/29 02:56:13;;;;;;;25.45;14.25;;;;;;;;;;5043017;28;20049;-66
2024/01/29 02:58:39;;;;;;;31.85;14.88;;;;;;;;;;5044590;28;20059;-66
2024/01/29 03:01:05;;;;;;;28.00;14.60;;;;;;;;;;5045810;28;20423;-66
2024/01/29 03:03:32;;;;;;;25.67;14.18;;;;;;;;;;5049135;28;20449;-68
2024/01/29 03:05:59;;;;;;;27.23;13.75;;;;;;;;;;5052259;28;20099;-66
2024/01/29 03:08:25;;;;;;;30.35;14.32;;;;;;;;;;5047733;28;20175;-66
2024/01/29 03:10:52;;;;;;;26.63;13.98;;;;;;;;;;5046097;28;20224;-66
2024/01/29 03:13:19;;;;;;;36.17;14.55;;;;;;;;;;5044477;28;20499;-67
2024/01/29 03:15:45;;;;;;;26.45;14.00;;;;;;;;;;5047081;28;20075;-67
2024/01/29 03:18:11;;;;;;;25.50;14.32;;;;;;;;;;5047009;28;20047;-67
2024/01/29 03:20:37;;;;;;;26.98;14.85;;;;;;;;;;5045241;28;20065;-68
2024/01/29 03:23:05;;;;;;;26.20;14.00;;;;;;;;;;5050377;28;20083;-68
2024/01/29 03:25:32;;;;;;;26.00;14.15;;;;;;;;;;5048577;28;20049;-67
2024/01/29 03:27:58;;;;;;;26.80;14.30;;;;;;;;;;5048616;28;20508;-69
2024/01/29 03:30:24;;;;;;;25.73;14.05;;;;;;;;;;5049241;28;20090;-67
2024/01/29 03:32:51;;;;;;;25.30;14.00;;;;;;;;;;5045456;28;20049;-66
2024/01/29 03:35:17;;;;;;;29.65;14.55;;;;;;;;;;5042374;28;20111;-68
2024/01/29 03:37:44;;;;;;;25.45;14.15;;;;;;;;;;5044439;28;20676;-66
2024/01/29 03:40:11;;;;;;;28.60;15.02;;;;;;;;;;5039314;28;20064;-66
2024/01/29 03:42:37;;;;;;;28.52;15.35;;;;;;;;;;5041014;28;20045;-68
2024/01/29 03:45:04;;;;;;;26.42;13.65;;;;;;;;;;5041428;28;20037;-66
2024/01/29 03:47:30;;;;;;;25.50;13.77;;;;;;;;;;5040213;28;22544;-66
2024/01/29 03:49:59;;;;;;;28.75;13.52;;;;;;;;;;5044359;28;20045;-68
2024/01/29 03:52:25;;;;;;;25.30;13.75;;;;;;;;;;5047692;28;20053;-67
2024/01/29 03:54:51;;;;;;;25.90;14.00;;;;;;;;;;5046704;28;22095;-68
2024/01/29 03:57:17;;;;;;;28.80;13.93;;;;;;;;;;5048328;28;20107;-67
2024/01/29 03:59:43;;;;;;;30.45;13.57;;;;;;;;;;5047084;28;20053;-67
2024/01/29 04:02:09;;;;;;;27.17;14.20;;;;;;;;;;5048099;28;20696;-67
2024/01/29 04:04:35;;;;;;;29.90;14.15;;;;;;;;;;5050153;28;20148;-68
2024/01/29 04:07:01;;;;;;;26.83;13.73;;;;;;;;;;5050408;28;20068;-68
2024/01/29 04:09:28;;;;;;;26.25;13.88;;;;;;;;;;5047669;28;20061;-67
2024/01/29 04:11:54;;;;;;;29.38;14.55;;;;;;;;;;5045550;28;20041;-66
2024/01/29 04:14:22;;;;;;;30.08;14.45;;;;;;;;;;5044436;28;20049;-66
2024/01/29 04:16:51;;;;;;;27.52;14.40;;;;;;;;;;5043353;28;20492;-67
2024/01/29 04:19:17;;;;;;;27.88;13.93;;;;;;;;;;5043745;28;20076;-69
2024/01/29 04:21:45;;;;;;;30.92;13.68;;;;;;;;;;5043903;28;20488;-67
2024/01/29 04:24:11;;;;;;;25.75;14.60;;;;;;;;;;5046246;28;20068;-67
2024/01/29 04:26:41;;;;;;;30.92;14.20;;;;;;;;;;5049639;28;20615;-69
2024/01/29 04:29:08;;;;;;;27.67;14.18;;;;;;;;;;5041050;28;20049;-67
2024/01/29 04:31:36;;;;;;;28.90;15.38;;;;;;;;;;5046609;28;20041;-67
2024/01/29 04:34:03;;;;;;;24.75;13.77;;;;;;;;;;5044909;28;20049;-66
2024/01/29 04:36:32;;;;;;;27.30;13.85;;;;;;;;;;5041956;28;20682;-68
2024/01/29 04:38:58;;;;;;;25.98;14.38;;;;;;;;;;5041263;28;20117;-65
2024/01/29 04:41:24;;;;;;;27.15;14.68;;;;;;;;;;5045510;28;20491;-67
2024/01/29 04:43:52;;;;;;;28.83;14.77;;;;;;;;;;5042759;28;20091;-66
2024/01/29 04:46:19;;;;;;;26.40;14.23;;;;;;;;;;5046111;28;20109;-67
2024/01/29 04:48:45;;;;;;;25.88;13.48;;;;;;;;;;5046572;28;20497;-67
2024/01/29 04:51:12;;;;;;;31.70;15.10;;;;;;;;;;5048889;28;20048;-68
2024/01/29 04:53:39;;;;;;;28.77;14.15;;;;;;;;;;5049657;28;20037;-68
2024/01/29 04:56:06;;;;;;;28.08;14.27;;;;;;;;;;5044771;28;20057;-66
2024/01/29 04:58:32;;;;;;;31.42;15.05;;;;;;;;;;5047738;28;20073;-68
2024/01/29 05:01:01;;;;;;;24.90;14.38;;;;;;;;;;5043046;28;20054;-67
2024/01/29 05:03:28;;;;;;;37.05;16.33;;;;;;;;;;5044409;28;20138;-67
2024/01/29 05:05:55;;;;;;;28.83;15.10;;;;;;;;;;5024121;28;20049;-67
2024/01/29 05:08:22;;;;;;;32.72;15.80;;;;;;;;;;5047335;28;20060;-66
2024/01/29 05:10:49;;;;;;;29.10;15.70;;;;;;;;;;5048482;28;20128;-66
2024/01/29 05:13:17;;;;;;;29.25;13.93;;;;;;;;;;5038282;28;20053;-66
2024/01/29 05:15:43;;;;;;;31.58;14.45;;;;;;;;;;5043450;28;20044;-67
2024/01/29 05:18:10;;;;;;;32.40;14.80;;;;;;;;;;5043731;28;20045;-66
2024/01/29 05:20:36;;;;;;;28.10;14.45;;;;;;;;;;5041596;28;20059;-67
2024/01/29 05:23:04;;;;;;;31.58;15.25;;;;;;;;;;5047441;28;20195;-66
2024/01/29 05:25:32;;;;;;;30.45;14.18;;;;;;;;;;5041669;28;20049;-68
2024/01/29 05:28:01;;;;;;;28.35;14.70;;;;;;;;;;5044391;28;20056;-66
2024/01/29 05:30:27;;;;;;;28.35;15.00;;;;;;;;;;5044881;28;20123;-67
2024/01/29 05:32:54;;;;;;;31.40;15.40;;;;;;;;;;5040458;28;20071;-67
2024/01/29 05:35:21;;;;;;;27.48;14.65;;;;;;;;;;5046095;28;20131;-68
2024/01/29 05:37:47;;;;;;;28.70;15.05;;;;;;;;;;5041067;28;20069;-69
2024/01/29 05:40:13;;;;;;;36.17;14.77;;;;;;;;;;5047393;28;20037;-68
2024/01/29 05:42:41;;;;;;;27.83;15.50;;;;;;;;;;5045894;28;20049;-69
2024/01/29 05:45:07;;;;;;;23.80;14.50;;;;;;;;;;5044210;28;20131;-68
2024/01/29 05:47:33;;;;;;;31.70;15.00;;;;;;;;;;5044812;28;20057;-67
2024/01/29 05:50:01;;;;;;;28.63;15.25;;;;;;;;;;5041138;28;20497;-69
2024/01/29 05:52:28;;;;;;;25.20;14.57;;;;;;;;;;5061818;28;20049;-68
2024/01/29 05:54:55;;;;;;;31.55;15.38;;;;;;;;;;5043442;28;20044;-68
2024/01/29 05:57:21;;;;;;;31.02;15.25;;;;;;;;;;5041710;28;20107;-66
2024/01/29 05:59:48;;;;;;;31.55;14.75;;;;;;;;;;5047387;28;20041;-68
2024/01/29 06:02:14;;;;;;;28.77;15.23;;;;;;;;;;5044587;28;20128;-68
2024/01/29 06:04:42;;;;;;;26.25;14.55;;;;;;;;;;5046743;28;20053;-66
2024/01/29 06:07:08;;;;;;;28.67;15.27;;;;;;;;;;5043617;28;20065;-73
2024/01/29 06:10:04;;;;;;;29.35;14.55;;;;;;;;;;5043596;28;20595;-67
2024/01/29 06:12:30;;;;;;;30.55;14.80;;;;;;;;;;5040789;28;20487;-68
2024/01/29 06:15:05;;;;;;;30.45;15.68;;;;;;;;;;5042564;28;20052;-66
2024/01/29 06:17:31;;;;;;;28.15;14.77;;;;;;;;;;5044176;28;20049;-66
2024/01/29 06:19:57;;;;;;;33.15;16.15;;;;;;;;;;5043996;28;20072;-67
2024/01/29 06:22:23;;;;;;;27.40;15.93;;;;;;;;;;5044181;28;20107;-68
2024/01/29 06:25:09;;;;;;;28.20;15.88;;;;;;;;;;5042291;28;20037;-72
2024/01/29 06:27:36;;;;;;;29.67;15.90;;;;;;;;;;5043000;28;20114;-70
2024/01/29 06:30:02;;;;;;;30.25;15.75;;;;;;;;;;5040556;28;20080;-68
2024/01/29 06:32:28;;;;;;;32.30;15.70;;;;;;;;;;5041217;28;20055;-67
2024/01/29 06:35:04;;;;;;;31.95;16.42;;;;;;;;;;5045735;28;20148;-67
2024/01/29 06:37:32;;;;;;;35.60;17.27;;;;;;;;;;5040261;28;20712;-67
2024/01/29 06:39:58;;;;;;;30.40;16.45;;;;;;;;;;5038808;28;20049;-65
2024/01/29 06:42:24;;;;;;;32.92;16.63;;;;;;;;;;5050950;28;20127;-67
2024/01/29 06:45:10;;;;;;;31.63;17.23;;;;;;;;;;5051610;28;20340;-68
2024/01/29 06:48:07;;;;;;;30.83;16.83;;;;;;;;;;5048387;28;20049;-66
2024/01/29 06:50:33;;;;;;;34.15;16.38;;;;;;;;;;5044560;28;20401;-65
2024/01/29 06:53:00;;;;;;;32.70;15.93;;;;;;;;;;5049097;28;20094;-67
2024/01/29 06:55:28;;;;;;;33.80;16.38;;;;;;;;;;5041657;28;20131;-64
2024/01/29 06:58:11;;;;;;;32.80;16.60;;;;;;;;;;5045410;28;20048;-64
2024/01/29 07:00:38;;;;;;;33.72;16.55;;;;;;;;;;5042700;28;20064;-65
2024/01/29 07:03:06;;;;;;;30.98;16.75;;;;;;;;;;5040010;28;20083;-71
2024/01/29 07:06:11;;;;;;;29.80;16.38;;;;;;;;;;5043221;28;20049;-65
2024/01/29 07:08:37;;;;;;;34.92;16.67;;;;;;;;;;5038673;28;20060;-64
2024/01/29 07:11:04;;;;;;;29.90;17.17;;;;;;;;;;5056331;28;20041;-64
2024/01/29 07:13:31;;;;;;;29.00;15.90;;;;;;;;;;5041954;28;20056;-66
2024/01/29 07:15:59;;;;;;;30.27;16.60;;;;;;;;;;5039479;28;20056;-68
2024/01/29 07:18:25;;;;;;;31.92;17.20;;;;;;;;;;5044657;28;20060;-65
2024/01/29 07:21:11;;;;;;;29.85;16.55;;;;;;;;;;5043177;28;20047;-68
2024/01/29 07:23:38;;;;;;;27.75;16.30;;;;;;;;;;5037476;28;20048;-65
2024/01/29 07:26:06;;;;;;;32.60;17.02;;;;;;;;;;5034578;28;20048;-64
2024/01/29 07:28:32;;;;;;;41.33;16.45;;;;;;;;;;5041201;28;20087;-66
2024/01/29 07:31:00;;;;;;;32.42;16.13;;;;;;;;;;5039245;28;20056;-65
2024/01/29 07:33:29;;;;;;;32.28;16.23;;;;;;;;;;5040984;28;20041;-66
2024/01/29 07:35:57;;;;;;;42.25;16.40;;;;;;;;;;5060957;28;20568;-65
2024/01/29 07:38:24;;;;;;;33.22;17.45;;;;;;;;;;5044591;28;20053;-67
2024/01/29 07:40:53;;;;;;;30.40;15.60;;;;;;;;;;5045147;28;20067;-64
2024/01/29 07:43:59;;;;;;;30.65;16.38;;;;;;;;;;5040810;28;20037;-67
2024/01/29 07:46:32;;;;;;;34.33;16.00;;;;;;;;;;5041197;28;20505;-72
2024/01/29 07:49:01;;;;;;;32.28;15.90;;;;;;;;;;5043276;28;20049;-63
2024/01/29 07:51:27;;;;;;;28.48;14.90;;;;;;;;;;5043999;28;20068;-69
2024/01/29 07:53:54;;;;;;;24.80;13.98;;;;;;;;;;5046678;28;20052;-67
2024/01/29 07:56:26;;;;;;;25.90;13.60;;;;;;;;;;5056830;28;20136;-67
2024/01/29 07:58:51;;;;;;;31.83;15.23;;;;;;;;;;5052272;28;20045;-65
2024/01/29 08:01:17;;;;;;;26.67;14.00;;;;;;;;;;5046575;28;20569;-66
2024/01/29 08:03:43;;;;;;;26.15;14.70;;;;;;;;;;5037940;28;20048;-64
2024/01/29 08:06:10;;;;;;;28.00;14.25;;;;;;;;;;5046246;28;20057;-65
2024/01/29 08:09:15;;;;;;;27.98;14.68;;;;;;;;;;5040277;28;20557;-64
2024/01/29 08:12:16;;;;;;;23.73;13.70;;;;;;;;;;5046415;28;20048;-65
2024/01/29 08:15:02;;;;;;;33.63;15.52;;;;;;;;;;5050145;28;20138;-66
2024/01/29 08:17:30;;;;;;;30.35;14.25;;;;;;;;;;5043900;28;20152;-66
2024/01/29 08:19:56;;;;;;;23.75;12.73;;;;;;;;;;5046533;28;20052;-65
2024/01/29 08:22:22;;;;;;;28.42;13.02;;;;;;;;;;5046326;28;20064;-66
2024/01/29 08:25:09;;;;;;;31.65;14.43;;;;;;;;;;5048185;28;20158;-66
2024/01/29 08:28:03;;;;;;;30.17;13.00;;;;;;;;;;5043654;28;20045;-65
2024/01/29 08:31:06;;;;;;;33.63;13.37;;;;;;;;;;5046173;28;20166;-66
2024/01/29 08:33:55;;;;;;;22.85;11.60;;;;;;;;;;5046712;28;20363;-65
2024/01/29 08:36:21;;;;;;;39.85;13.90;;;;;;;;;;5048549;28;20049;-67
2024/01/29 08:38:47;;;;;;;32.47;13.18;;;;;;;;;;5044554;28;20055;-71
2024/01/29 08:41:15;;;;;;;26.67;12.75;;;;;;;;;;5046213;28;20037;-66
2024/01/29 08:43:41;;;;;;;25.02;13.30;;;;;;;;;;5045124;28;20143;-66
2024/01/29 08:46:10;;;;;;;26.02;13.25;;;;;;;;;;5045907;28;20053;-68
2024/01/29 08:48:37;;;;;;;28.75;11.77;;;;;;;;;;5046456;28;20053;-67
2024/01/29 08:51:04;;;;;;;31.60;12.73;;;;;;;;;;5046047;28;20041;-66
2024/01/29 08:53:32;;;;;;;23.95;12.35;;;;;;;;;;5049845;28;20056;-68
2024/01/29 08:56:05;;;;;;;23.77;12.05;;;;;;;;;;5046111;28;20069;-70
2024/01/29 08:58:33;;;;;;;26.33;11.53;;;;;;;;;;5047993;28;20044;-67
2024/01/29 09:01:02;;;;;;;23.80;11.15;;;;;;;;;;5048715;28;20075;-68
2024/01/29 09:03:28;;;;;;;24.55;11.80;;;;;;;;;;5048361;28;20128;-66
2024/01/29 09:05:58;;;;;;;21.35;11.43;;;;;;;;;;5046529;28;20121;-66
2024/01/29 09:08:27;;;;;;;23.33;11.32;;;;;;;;;;5047483;28;20102;-67
2024/01/29 09:10:57;;;;;;;25.05;11.35;;;;;;;;;;5042100;28;20045;-69
2024/01/29 09:13:24;;;;;;;24.45;11.38;;;;;;;;;;5052016;28;20048;-67
2024/01/29 09:15:55;;;;;;;28.30;11.27;;;;;;;;;;5049302;28;20497;-65
2024/01/29 09:18:21;;;;;;;23.27;11.77;;;;;;;;;;5046851;28;20048;-67
2024/01/29 09:20:49;;;;;;;26.48;12.07;;;;;;;;;;5052797;28;20052;-68
2024/01/29 09:23:16;;;;;;;26.25;11.80;;;;;;;;;;5049808;28;20060;-72
2024/01/29 09:25:45;;;;;;;26.17;11.95;;;;;;;;;;5047011;28;20052;-67
2024/01/29 09:28:12;;;;;;;27.08;10.95;;;;;;;;;;5047269;28;20033;-67
2024/01/29 09:30:39;;;;;;;26.30;11.63;;;;;;;;;;5048199;28;20049;-67
2024/01/29 09:33:05;;;;;;;23.42;11.07;;;;;;;;;;5041009;28;20059;-68
2024/01/29 09:35:31;;;;;;;23.25;11.82;;;;;;;;;;5048311;28;20076;-67
2024/01/29 09:38:01;;;;;;;21.33;10.70;;;;;;;;;;5047754;28;20178;-67
2024/01/29 09:40:31;;;;;;;23.67;10.52;;;;;;;;;;5047391;28;20052;-66
2024/01/29 09:43:04;;;;;;;25.35;11.38;;;;;;;;;;5048911;28;20044;-68
2024/01/29 09:45:35;;;;;;;24.53;11.07;;;;;;;;;;5031032;28;20144;-66
2024/01/29 09:48:03;;;;;;;20.77;10.80;;;;;;;;;;5044471;28;20293;-66
2024/01/29 09:50:33;;;;;;;21.80;10.15;;;;;;;;;;5045184;28;20504;-67
2024/01/29 09:53:01;;;;;;;17.17;10.35;;;;;;;;;;5048472;28;20633;-67
2024/01/29 09:55:33;;;;;;;27.52;10.68;;;;;;;;;;5046262;28;20056;-65
2024/01/29 09:58:03;;;;;;;23.00;9.68;;;;;;;;;;5043856;28;20037;-65
2024/01/29 10:00:30;;;;;;;24.40;10.70;;;;;;;;;;5049303;28;20123;-67
2024/01/29 10:03:06;;;;;;;26.10;10.45;;;;;;;;;;5049854;28;20128;-66
2024/01/29 10:05:32;;;;;;;24.83;10.20;;;;;;;;;;5039109;28;20048;-65
2024/01/29 10:08:00;;;;;;;27.75;9.57;;;;;;;;;;5044589;28;20048;-66
2024/01/29 10:10:30;;;;;;;20.23;9.48;;;;;;;;;;5040120;28;20421;-67
2024/01/29 10:13:08;;;;;;;23.98;9.70;;;;;;;;;;5047428;28;20419;-70
2024/01/29 10:15:36;;;;;;;22.48;8.80;;;;;;;;;;5053038;28;20459;-68
2024/01/29 10:18:09;;;;;;;22.58;10.00;;;;;;;;;;5045911;28;20077;-67
2024/01/29 10:20:36;;;;;;;18.98;9.43;;;;;;;;;;5045218;28;20052;-67
2024/01/29 10:23:03;;;;;;;24.83;9.73;;;;;;;;;;5047006;28;20049;-69
2024/01/29 10:25:34;;;;;;;24.15;9.23;;;;;;;;;;5024810;28;20683;-69
2024/01/29 10:28:12;;;;;;;33.15;9.68;;;;;;;;;;5045330;28;20110;-67
2024/01/29 10:30:43;;;;;;;19.85;8.77;;;;;;;;;;5045261;28;20600;-66
2024/01/29 10:33:11;;;;;;;19.88;8.05;;;;;;;;;;5046916;28;20114;-67
2024/01/29 10:35:39;;;;;;;21.60;9.30;;;;;;;;;;5044659;28;20192;-70
2024/01/29 10:38:06;;;;;;;16.58;8.80;;;;;;;;;;5048349;28;20072;-70
2024/01/29 10:40:36;;;;;;;21.50;8.43;;;;;;;;;;5045170;28;20049;-68
2024/01/29 10:43:04;;;;;;;25.10;9.23;;;;;;;;;;5060536;28;20049;-67
2024/01/29 10:45:37;;;;;;;20.08;8.45;;;;;;;;;;5041872;28;20044;-68
2024/01/29 10:48:26;;;;;;;16.15;8.43;;;;;;;;;;5045634;28;20083;-66
2024/01/29 10:50:52;;;;;;;18.92;9.23;;;;;;;;;;5044326;28;20071;-68
2024/01/29 10:53:20;;;;;;;23.77;9.40;;;;;;;;;;5041987;28;20061;-68
2024/01/29 10:55:50;;;;;;;22.77;9.75;;;;;;;;;;5044812;28;20068;-66
2024/01/29 10:58:18;;;;;;;17.10;9.00;;;;;;;;;;5043829;28;20049;-67
2024/01/29 11:00:46;;;;;;;24.98;9.02;;;;;;;;;;5004602;28;20375;-70
2024/01/29 11:03:21;;;;;;;19.88;9.43;;;;;;;;;;5044851;28;20044;-71
2024/01/29 11:06:05;;;;;;;20.30;9.00;;;;;;;;;;5043837;28;20481;-68
2024/01/29 11:08:35;;;;;;;22.95;9.25;;;;;;;;;;5040684;28;20053;-66
2024/01/29 11:11:03;;;;;;;18.55;8.63;;;;;;;;;;5045289;28;20416;-67
2024/01/29 11:13:33;;;;;;;23.23;9.35;;;;;;;;;;5045727;28;20049;-68
2024/01/29 11:16:02;;;;;;;19.08;9.10;;;;;;;;;;5039413;28;20468;-66
2024/01/29 11:18:34;;;;;;;18.38;8.73;;;;;;;;;;5046188;28;20053;-66
2024/01/29 11:21:03;;;;;;;20.45;9.73;;;;;;;;;;5045780;28;20049;-68
2024/01/29 11:23:40;;;;;;;22.67;9.00;;;;;;;;;;5045976;28;20415;-70
2024/01/29 11:26:13;;;;;;;18.17;8.77;;;;;;;;;;5045612;28;20127;-68
2024/01/29 11:28:39;;;;;;;21.83;9.23;;;;;;;;;;5049383;28;20194;-67
2024/01/29 11:31:11;;;;;;;22.42;8.90;;;;;;;;;;5048333;28;20041;-67
2024/01/29 11:33:46;;;;;;;20.67;9.00;;;;;;;;;;5045743;28;20041;-67
2024/01/29 11:36:16;;;;;;;20.48;9.25;;;;;;;;;;5049031;28;20075;-67
2024/01/29 11:38:42;;;;;;;23.38;9.75;;;;;;;;;;5053350;28;20037;-68
2024/01/29 11:41:11;;;;;;;31.52;9.18;;;;;;;;;;5047041;28;20053;-69
2024/01/29 11:43:40;;;;;;;22.48;9.38;;;;;;;;;;5049190;28;20107;-68
2024/01/29 11:46:12;;;;;;;21.60;9.07;;;;;;;;;;5047709;28;20044;-68
2024/01/29 11:48:37;;;;;;;21.55;9.77;;;;;;;;;;5048264;28;20136;-69
2024/01/29 11:51:08;;;;;;;18.20;8.85;;;;;;;;;;5050220;28;20108;-68
2024/01/29 11:53:34;;;;;;;17.27;8.90;;;;;;;;;;5048770;28;20110;-67
2024/01/29 11:56:04;;;;;;;21.70;7.93;;;;;;;;;;5045587;28;20056;-66
2024/01/29 11:58:30;;;;;;;21.80;9.43;;;;;;;;;;5048849;28;20041;-68
2024/01/29 12:00:56;;;;;;;30.00;9.63;;;;;;;;;;5049138;28;20072;-68
2024/01/29 12:03:25;;;;;;;25.02;10.13;;;;;;;;;;5049673;28;20154;-66
2024/01/29 12:05:53;;;;;;;23.10;9.88;;;;;;;;;;5049275;28;20103;-67
2024/01/29 12:08:21;;;;;;;21.55;9.40;;;;;;;;;;5050921;28;20053;-67
2024/01/29 12:10:48;;;;;;;24.35;10.10;;;;;;;;;;5048877;28;20527;-66
2024/01/29 12:13:15;;;;;;;19.92;10.52;;;;;;;;;;5050050;28;20041;-67
2024/01/29 12:15:44;;;;;;;21.45;10.45;;;;;;;;;;5047263;28;20490;-68
2024/01/29 12:18:23;;;;;;;20.45;10.30;;;;;;;;;;5047836;28;20057;-67
2024/01/29 12:20:49;;;;;;;23.27;10.07;;;;;;;;;;5049899;28;20461;-70
2024/01/29 12:23:22;;;;;;;21.48;10.40;;;;;;;;;;5044811;28;20110;-66
2024/01/29 12:25:58;;;;;;;22.45;10.65;;;;;;;;;;5047186;28;20053;-68
2024/01/29 12:28:27;;;;;;;16.33;9.23;;;;;;;;;;5041827;28;20115;-66
2024/01/29 12:31:04;;;;;;;21.30;8.20;;;;;;;;;;5047372;28;20081;-68
2024/01/29 12:33:36;;;;;;;14.55;7.75;;;;;;;;;;5048880;28;20048;-66
2024/01/29 12:36:15;;;;;;;25.33;8.03;;;;;;;;;;5035994;28;20044;-69
2024/01/29 12:38:43;;;;;;;13.60;7.93;;;;;;;;;;5042276;28;20362;-67
2024/01/29 12:41:10;;;;;;;21.92;8.88;;;;;;;;;;5037042;28;20724;-67
2024/01/29 12:43:43;;;;;;;19.15;6.63;;;;;;;;;;5047832;28;20136;-66
2024/01/29 12:46:12;;;;;;;14.30;5.75;;;;;;;;;;5039892;28;20037;-71
2024/01/29 12:48:38;;;;;;;9.95;4.10;;;;;;;;;;5045217;28;20481;-68
2024/01/29 12:51:11;;;;;;;16.92;4.57;;;;;;;;;;5047262;28;20120;-68
2024/01/29 12:53:55;;;;;;;14.82;4.20;;;;;;;;;;5044846;28;20045;-68
2024/01/29 12:56:26;;;;;;;10.50;4.53;;;;;;;;;;5044888;28;20057;-68
2024/01/29 12:58:56;;;;;;;9.73;4.07;;;;;;;;;;5046821;28;20102;-68
2024/01/29 13:01:24;;;;;;;12.10;4.22;;;;;;;;;;5049356;28;20053;-69
2024/01/29 13:03:52;;;;;;;21.42;5.18;;;;;;;;;;5050131;28;20573;-70
2024/01/29 13:06:18;;;;;;;12.73;4.95;;;;;;;;;;5044054;28;20075;-68
2024/01/29 13:08:44;;;;;;;10.63;4.07;;;;;;;;;;5042720;28;20451;-69
2024/01/29 13:11:12;;;;;;;13.88;4.65;;;;;;;;;;5048314;28;20051;-71
2024/01/29 13:13:45;;;;;;;10.52;3.85;;;;;;;;;;5048226;28;20319;-68
2024/01/29 13:16:11;;;;;;;13.00;4.45;;;;;;;;;;5042936;28;20052;-70
2024/01/29 13:18:37;;;;;;;11.13;4.35;;;;;;;;;;5052561;28;20057;-68
2024/01/29 13:21:04;;;;;;;15.88;3.63;;;;;;;;;;5042929;28;20045;-69
2024/01/29 13:23:30;;;;;;;8.35;3.78;;;;;;;;;;5051038;28;20119;-68
2024/01/29 13:25:59;;;;;;;13.50;4.20;;;;;;;;;;5046515;28;20039;-67
2024/01/29 13:28:26;;;;;;;10.98;3.70;;;;;;;;;;5047183;28;20114;-68
2024/01/29 13:30:59;;;;;;;;;;;;;;;;;;5041350;28;20056;-70
2024/01/29 13:33:26;;;;;;;8.32;3.50;;;;;;;;;;5048115;28;19924;-68
2024/01/29 13:35:53;;;;;;;8.45;4.00;;;;;;;;;;5047379;28;20500;-68
2024/01/29 13:38:21;;;;;;;12.85;4.35;;;;;;;;;;5047959;28;20573;-67
2024/01/29 13:40:48;;;;;;;12.32;4.55;;;;;;;;;;5046211;28;20098;-68
2024/01/29 13:43:18;;;;;;;11.93;4.40;;;;;;;;;;5041794;28;20153;-68
2024/01/29 13:45:48;;;;;;;10.98;5.07;;;;;;;;;;5050350;28;20053;-69
2024/01/29 13:48:15;;;;;;;15.82;5.70;;;;;;;;;;5048202;28;20103;-68
2024/01/29 13:50:41;;;;;;;17.80;5.75;;;;;;;;;;5050069;28;20049;-68
2024/01/29 13:53:10;;;;;;;19.23;6.07;;;;;;;;;;5046382;28;20467;-70
2024/01/29 13:55:46;;;;;;;12.75;6.25;;;;;;;;;;5041409;28;20044;-67
2024/01/29 13:58:16;;;;;;;13.27;5.95;;;;;;;;;;5043328;28;20064;-69
2024/01/29 14:01:04;;;;;;;14.32;6.50;;;;;;;;;;5047291;28;20049;-67
2024/01/29 14:03:33;;;;;;;13.90;6.82;;;;;;;;;;5029491;28;20389;-69
2024/01/29 14:06:04;;;;;;;11.50;5.45;;;;;;;;;;5047711;28;20063;-68
2024/01/29 14:08:35;;;;;;;13.60;5.97;;;;;;;;;;5049064;28;20558;-70
2024/01/29 14:11:05;;;;;;;15.40;6.28;;;;;;;;;;5051236;28;20485;-67
2024/01/29 14:13:33;;;;;;;11.73;5.25;;;;;;;;;;5049493;28;20072;-69
2024/01/29 14:16:01;;;;;;;11.70;6.43;;;;;;;;;;5050574;28;20110;-69
2024/01/29 14:18:30;;;;;;;17.27;5.97;;;;;;;;;;5045844;28;20078;-72
2024/01/29 14:21:07;;;;;;;15.45;6.25;;;;;;;;;;5035110;28;20041;-67
2024/01/29 14:23:34;;;;;;;15.10;7.90;;;;;;;;;;5049763;28;20052;-68
2024/01/29 14:26:04;;;;;;;16.02;7.13;;;;;;;;;;5048326;28;20152;-69
2024/01/29 14:28:33;;;;;;;16.38;6.63;;;;;;;;;;5045734;28;20057;-68
2024/01/29 14:31:05;;;;;;;11.88;5.63;;;;;;;;;;5046139;28;20059;-68
2024/01/29 14:33:31;;;;;;;12.40;5.35;;;;;;;;;;5042039;28;20496;-68